sensor_id;sensor_type;location;lat;lon;timestamp;temperature;humidity
46085;DHT22;31823;47.032;8.310;2022-07-12T00:01:37;16.00;99.90
46085;DHT22;31823;47.032;8.310;2022-07-12T00:04:03;16.00;99.90
46085;DHT22;31823;47.032;8.310;2022-07-12T00:06:29;16.10;99.90
46085;DHT22;31823;47.032;8.310;2022-07-12T00:08:54;16.00;99.90
46085;DHT22;31823;47.032;8.310;2022-07-12T00:11:20;16.00;99.90
46085;DHT22;31823;47.032;8.310;2022-07-12T00:13:46;15.90;99.90
46085;DHT22;31823;47.032;8.310;2022-07-12T00:16:11;15.90;99.90
46085;DHT22;31823;47.032;8.310;2022-07-12T00:18:37;15.80;99.90
46085;DHT22;31823;47.032;8.310;2022-07-12T00:21:03;15.80;99.90
46085;DHT22;31823;47.032;8.310;2022-07-12T00:23:28;15.80;99.90
46085;DHT22;31823;47.032;8.310;2022-07-12T00:25:54;15.80;99.90
46085;DHT22;31823;47.032;8.310;2022-07-12T00:28:20;15.70;99.90
46085;DHT22;31823;47.032;8.310;2022-07-12T00:30:45;15.70;99.90
46085;DHT22;31823;47.032;8.310;2022-07-12T00:33:11;15.90;99.90
46085;DHT22;31823;47.032;8.310;2022-07-12T00:35:36;15.70;99.90
46085;DHT22;31823;47.032;8.310;2022-07-12T00:38:02;15.80;99.90
46085;DHT22;31823;47.032;8.310;2022-07-12T00:40:28;15.80;99.90
46085;DHT22;31823;47.032;8.310;2022-07-12T00:42:53;15.80;99.90
46085;DHT22;31823;47.032;8.310;2022-07-12T00:45:19;15.60;99.90
46085;DHT22;31823;47.032;8.310;2022-07-12T00:47:46;15.60;99.90
46085;DHT22;31823;47.032;8.310;2022-07-12T00:50:17;15.70;99.90
46085;DHT22;31823;47.032;8.310;2022-07-12T00:52:44;15.60;99.90
46085;DHT22;31823;47.032;8.310;2022-07-12T00:55:11;15.60;99.90
46085;DHT22;31823;47.032;8.310;2022-07-12T00:57:38;15.50;99.90
46085;DHT22;31823;47.032;8.310;2022-07-12T01:00:07;15.50;99.90
46085;DHT22;31823;47.032;8.310;2022-07-12T01:02:35;15.50;99.90
46085;DHT22;31823;47.032;8.310;2022-07-12T01:05:01;15.50;99.90
46085;DHT22;31823;47.032;8.310;2022-07-12T01:07:28;15.50;99.90
46085;DHT22;31823;47.032;8.310;2022-07-12T01:09:54;15.50;99.90
46085;DHT22;31823;47.032;8.310;2022-07-12T01:12:21;15.50;99.90
46085;DHT22;31823;47.032;8.310;2022-07-12T01:14:48;15.50;99.90
46085;DHT22;31823;47.032;8.310;2022-07-12T01:17:14;15.40;99.90
46085;DHT22;31823;47.032;8.310;2022-07-12T01:19:40;15.50;99.90
46085;DHT22;31823;47.032;8.310;2022-07-12T01:22:10;15.40;99.90
46085;DHT22;31823;47.032;8.310;2022-07-12T01:24:38;15.50;99.90
46085;DHT22;31823;47.032;8.310;2022-07-12T01:27:05;15.40;99.90
46085;DHT22;31823;47.032;8.310;2022-07-12T01:29:31;15.40;99.90
46085;DHT22;31823;47.032;8.310;2022-07-12T01:32:00;15.30;99.90
46085;DHT22;31823;47.032;8.310;2022-07-12T01:34:47;15.30;99.90
46085;DHT22;31823;47.032;8.310;2022-07-12T01:37:14;15.30;99.90
46085;DHT22;31823;47.032;8.310;2022-07-12T01:39:40;15.30;99.90
46085;DHT22;31823;47.032;8.310;2022-07-12T01:42:06;15.20;99.90
46085;DHT22;31823;47.032;8.310;2022-07-12T01:44:32;15.30;99.90
46085;DHT22;31823;47.032;8.310;2022-07-12T01:47:01;15.30;99.90
46085;DHT22;31823;47.032;8.310;2022-07-12T01:49:26;15.30;99.90
46085;DHT22;31823;47.032;8.310;2022-07-12T01:51:54;15.30;99.90
46085;DHT22;31823;47.032;8.310;2022-07-12T01:54:20;15.30;99.90
46085;DHT22;31823;47.032;8.310;2022-07-12T01:56:46;15.30;99.90
46085;DHT22;31823;47.032;8.310;2022-07-12T01:59:12;15.30;99.90
46085;DHT22;31823;47.032;8.310;2022-07-12T02:01:38;15.20;99.90
46085;DHT22;31823;47.032;8.310;2022-07-12T02:04:04;15.20;99.90
46085;DHT22;31823;47.032;8.310;2022-07-12T02:06:30;15.20;99.90
46085;DHT22;31823;47.032;8.310;2022-07-12T02:08:56;15.20;99.90
46085;DHT22;31823;47.032;8.310;2022-07-12T02:11:22;15.10;99.90
46085;DHT22;31823;47.032;8.310;2022-07-12T02:13:48;15.10;99.90
46085;DHT22;31823;47.032;8.310;2022-07-12T02:16:13;15.20;99.90
46085;DHT22;31823;47.032;8.310;2022-07-12T02:18:39;15.10;99.90
46085;DHT22;31823;47.032;8.310;2022-07-12T02:21:05;15.10;99.90
46085;DHT22;31823;47.032;8.310;2022-07-12T02:23:30;15.10;99.90
46085;DHT22;31823;47.032;8.310;2022-07-12T02:25:56;15.00;99.90
46085;DHT22;31823;47.032;8.310;2022-07-12T02:28:22;14.90;99.90
46085;DHT22;31823;47.032;8.310;2022-07-12T02:30:47;15.00;99.90
46085;DHT22;31823;47.032;8.310;2022-07-12T02:33:13;15.00;99.90
46085;DHT22;31823;47.032;8.310;2022-07-12T02:35:42;15.00;99.90
46085;DHT22;31823;47.032;8.310;2022-07-12T02:38:08;15.00;99.90
46085;DHT22;31823;47.032;8.310;2022-07-12T02:40:34;15.00;99.90
46085;DHT22;31823;47.032;8.310;2022-07-12T02:43:22;15.00;99.90
46085;DHT22;31823;47.032;8.310;2022-07-12T02:45:48;14.90;99.90
46085;DHT22;31823;47.032;8.310;2022-07-12T02:48:14;14.90;99.90
46085;DHT22;31823;47.032;8.310;2022-07-12T02:50:40;14.90;99.90
46085;DHT22;31823;47.032;8.310;2022-07-12T02:53:06;15.00;99.90
46085;DHT22;31823;47.032;8.310;2022-07-12T02:55:32;14.90;99.90
46085;DHT22;31823;47.032;8.310;2022-07-12T02:57:58;15.00;99.90
46085;DHT22;31823;47.032;8.310;2022-07-12T03:00:23;15.00;99.90
46085;DHT22;31823;47.032;8.310;2022-07-12T03:02:49;15.00;99.90
46085;DHT22;31823;47.032;8.310;2022-07-12T03:05:15;15.00;99.90
46085;DHT22;31823;47.032;8.310;2022-07-12T03:07:41;14.90;99.90
46085;DHT22;31823;47.032;8.310;2022-07-12T03:10:06;15.00;99.90
46085;DHT22;31823;47.032;8.310;2022-07-12T03:12:32;15.00;99.90
46085;DHT22;31823;47.032;8.310;2022-07-12T03:14:58;14.90;99.90
46085;DHT22;31823;47.032;8.310;2022-07-12T03:17:24;14.90;99.90
46085;DHT22;31823;47.032;8.310;2022-07-12T03:19:49;14.90;99.90
46085;DHT22;31823;47.032;8.310;2022-07-12T03:22:15;14.80;99.90
46085;DHT22;31823;47.032;8.310;2022-07-12T03:24:41;14.80;99.90
46085;DHT22;31823;47.032;8.310;2022-07-12T03:27:06;14.80;99.90
46085;DHT22;31823;47.032;8.310;2022-07-12T03:29:32;14.80;99.90
46085;DHT22;31823;47.032;8.310;2022-07-12T03:31:58;14.80;99.90
46085;DHT22;31823;47.032;8.310;2022-07-12T03:34:24;14.70;99.90
46085;DHT22;31823;47.032;8.310;2022-07-12T03:36:50;14.70;99.90
46085;DHT22;31823;47.032;8.310;2022-07-12T03:39:15;14.60;99.90
46085;DHT22;31823;47.032;8.310;2022-07-12T03:41:41;14.60;99.90
46085;DHT22;31823;47.032;8.310;2022-07-12T03:44:06;14.60;99.90
46085;DHT22;31823;47.032;8.310;2022-07-12T03:46:32;14.60;99.90
46085;DHT22;31823;47.032;8.310;2022-07-12T03:48:58;14.60;99.90
46085;DHT22;31823;47.032;8.310;2022-07-12T03:51:25;14.70;99.90
46085;DHT22;31823;47.032;8.310;2022-07-12T03:53:51;14.60;99.90
46085;DHT22;31823;47.032;8.310;2022-07-12T03:56:17;14.60;99.90
46085;DHT22;31823;47.032;8.310;2022-07-12T03:59:01;14.60;99.90
46085;DHT22;31823;47.032;8.310;2022-07-12T04:01:26;14.60;99.90
46085;DHT22;31823;47.032;8.310;2022-07-12T04:03:52;14.70;99.90
46085;DHT22;31823;47.032;8.310;2022-07-12T04:06:18;14.70;99.90
46085;DHT22;31823;47.032;8.310;2022-07-12T04:08:43;14.60;99.90
46085;DHT22;31823;47.032;8.310;2022-07-12T04:11:09;14.60;99.90
46085;DHT22;31823;47.032;8.310;2022-07-12T04:13:34;14.70;99.90
46085;DHT22;31823;47.032;8.310;2022-07-12T04:16:00;14.70;99.90
46085;DHT22;31823;47.032;8.310;2022-07-12T04:18:26;14.80;99.90
46085;DHT22;31823;47.032;8.310;2022-07-12T04:20:52;14.80;99.90
46085;DHT22;31823;47.032;8.310;2022-07-12T04:23:17;14.90;99.90
46085;DHT22;31823;47.032;8.310;2022-07-12T04:25:43;14.90;99.90
46085;DHT22;31823;47.032;8.310;2022-07-12T04:28:08;15.00;99.90
46085;DHT22;31823;47.032;8.310;2022-07-12T04:30:34;15.00;99.90
46085;DHT22;31823;47.032;8.310;2022-07-12T04:33:00;15.00;99.90
46085;DHT22;31823;47.032;8.310;2022-07-12T04:35:25;15.10;99.90
46085;DHT22;31823;47.032;8.310;2022-07-12T04:37:51;15.20;99.90
46085;DHT22;31823;47.032;8.310;2022-07-12T04:40:17;15.20;99.90
46085;DHT22;31823;47.032;8.310;2022-07-12T04:42:42;15.20;99.90
46085;DHT22;31823;47.032;8.310;2022-07-12T04:45:08;15.10;99.90
46085;DHT22;31823;47.032;8.310;2022-07-12T04:47:37;15.10;99.90
46085;DHT22;31823;47.032;8.310;2022-07-12T04:50:07;15.10;99.90
46085;DHT22;31823;47.032;8.310;2022-07-12T04:52:33;15.10;99.90
46085;DHT22;31823;47.032;8.310;2022-07-12T04:54:59;15.00;99.90
46085;DHT22;31823;47.032;8.310;2022-07-12T04:57:24;15.00;99.90
46085;DHT22;31823;47.032;8.310;2022-07-12T04:59:50;14.90;99.90
46085;DHT22;31823;47.032;8.310;2022-07-12T05:02:16;15.00;99.90
46085;DHT22;31823;47.032;8.310;2022-07-12T05:04:41;15.00;99.90
46085;DHT22;31823;47.032;8.310;2022-07-12T05:07:07;15.10;99.90
46085;DHT22;31823;47.032;8.310;2022-07-12T05:09:33;15.00;99.90
46085;DHT22;31823;47.032;8.310;2022-07-12T05:11:58;15.00;99.90
46085;DHT22;31823;47.032;8.310;2022-07-12T05:14:24;15.00;99.90
46085;DHT22;31823;47.032;8.310;2022-07-12T05:16:50;15.00;99.90
46085;DHT22;31823;47.032;8.310;2022-07-12T05:19:15;15.00;99.90
46085;DHT22;31823;47.032;8.310;2022-07-12T05:21:42;15.00;99.90
46085;DHT22;31823;47.032;8.310;2022-07-12T05:24:08;15.10;99.90
46085;DHT22;31823;47.032;8.310;2022-07-12T05:26:34;15.00;99.90
46085;DHT22;31823;47.032;8.310;2022-07-12T05:28:59;15.10;99.90
46085;DHT22;31823;47.032;8.310;2022-07-12T05:31:25;15.20;99.90
46085;DHT22;31823;47.032;8.310;2022-07-12T05:33:52;15.30;99.90
46085;DHT22;31823;47.032;8.310;2022-07-12T05:36:17;15.30;99.90
46085;DHT22;31823;47.032;8.310;2022-07-12T05:38:43;15.30;99.90
46085;DHT22;31823;47.032;8.310;2022-07-12T05:41:09;15.30;99.90
46085;DHT22;31823;47.032;8.310;2022-07-12T05:43:35;15.30;99.90
46085;DHT22;31823;47.032;8.310;2022-07-12T05:46:01;15.50;99.90
46085;DHT22;31823;47.032;8.310;2022-07-12T05:48:26;16.00;99.90
46085;DHT22;31823;47.032;8.310;2022-07-12T05:50:52;15.90;99.90
46085;DHT22;31823;47.032;8.310;2022-07-12T05:53:18;15.80;99.90
46085;DHT22;31823;47.032;8.310;2022-07-12T05:55:50;15.70;99.90
46085;DHT22;31823;47.032;8.310;2022-07-12T05:58:17;15.70;99.90
46085;DHT22;31823;47.032;8.310;2022-07-12T06:00:44;15.70;99.90
46085;DHT22;31823;47.032;8.310;2022-07-12T06:03:10;15.80;99.90
46085;DHT22;31823;47.032;8.310;2022-07-12T06:05:37;15.70;99.90
46085;DHT22;31823;47.032;8.310;2022-07-12T06:08:03;16.00;99.90
46085;DHT22;31823;47.032;8.310;2022-07-12T06:10:29;16.50;99.90
46085;DHT22;31823;47.032;8.310;2022-07-12T06:12:55;16.40;99.90
46085;DHT22;31823;47.032;8.310;2022-07-12T06:15:20;17.00;99.90
46085;DHT22;31823;47.032;8.310;2022-07-12T06:17:46;16.90;99.90
46085;DHT22;31823;47.032;8.310;2022-07-12T06:20:13;16.90;99.90
46085;DHT22;31823;47.032;8.310;2022-07-12T06:22:39;16.80;99.90
46085;DHT22;31823;47.032;8.310;2022-07-12T06:25:05;16.90;99.90
46085;DHT22;31823;47.032;8.310;2022-07-12T06:27:32;16.90;99.90
46085;DHT22;31823;47.032;8.310;2022-07-12T06:29:57;16.90;99.90
46085;DHT22;31823;47.032;8.310;2022-07-12T06:32:23;16.90;99.90
46085;DHT22;31823;47.032;8.310;2022-07-12T06:34:48;17.10;99.90
46085;DHT22;31823;47.032;8.310;2022-07-12T06:37:14;17.40;99.90
46085;DHT22;31823;47.032;8.310;2022-07-12T06:39:40;18.00;99.90
46085;DHT22;31823;47.032;8.310;2022-07-12T06:42:06;17.80;99.90
46085;DHT22;31823;47.032;8.310;2022-07-12T06:44:33;17.90;99.90
46085;DHT22;31823;47.032;8.310;2022-07-12T06:46:59;17.90;99.90
46085;DHT22;31823;47.032;8.310;2022-07-12T06:49:25;17.80;99.90
46085;DHT22;31823;47.032;8.310;2022-07-12T06:51:51;17.90;99.90
46085;DHT22;31823;47.032;8.310;2022-07-12T06:54:17;18.20;99.90
46085;DHT22;31823;47.032;8.310;2022-07-12T06:56:43;18.40;99.90
46085;DHT22;31823;47.032;8.310;2022-07-12T06:59:09;18.20;99.90
46085;DHT22;31823;47.032;8.310;2022-07-12T07:01:38;18.20;99.90
46085;DHT22;31823;47.032;8.310;2022-07-12T07:04:04;19.00;99.90
46085;DHT22;31823;47.032;8.310;2022-07-12T07:06:29;19.20;99.90
46085;DHT22;31823;47.032;8.310;2022-07-12T07:08:55;18.90;99.90
46085;DHT22;31823;47.032;8.310;2022-07-12T07:11:21;18.90;99.90
46085;DHT22;31823;47.032;8.310;2022-07-12T07:13:46;19.30;99.90
46085;DHT22;31823;47.032;8.310;2022-07-12T07:16:12;19.30;99.90
46085;DHT22;31823;47.032;8.310;2022-07-12T07:18:39;19.70;99.90
46085;DHT22;31823;47.032;8.310;2022-07-12T07:21:06;20.30;99.90
46085;DHT22;31823;47.032;8.310;2022-07-12T07:23:32;20.40;99.90
46085;DHT22;31823;47.032;8.310;2022-07-12T07:25:58;20.60;99.90
46085;DHT22;31823;47.032;8.310;2022-07-12T07:28:24;20.40;99.90
46085;DHT22;31823;47.032;8.310;2022-07-12T07:30:49;20.70;99.90
46085;DHT22;31823;47.032;8.310;2022-07-12T07:33:22;20.80;99.90
46085;DHT22;31823;47.032;8.310;2022-07-12T07:36:07;21.20;99.90
46085;DHT22;31823;47.032;8.310;2022-07-12T07:38:32;21.10;99.90
46085;DHT22;31823;47.032;8.310;2022-07-12T07:40:58;20.90;99.90
46085;DHT22;31823;47.032;8.310;2022-07-12T07:43:24;21.00;99.90
46085;DHT22;31823;47.032;8.310;2022-07-12T07:45:49;21.00;99.90
46085;DHT22;31823;47.032;8.310;2022-07-12T07:48:15;21.20;99.90
46085;DHT22;31823;47.032;8.310;2022-07-12T07:50:41;21.20;99.90
46085;DHT22;31823;47.032;8.310;2022-07-12T07:53:06;21.50;99.90
46085;DHT22;31823;47.032;8.310;2022-07-12T07:55:32;21.60;99.90
46085;DHT22;31823;47.032;8.310;2022-07-12T07:57:58;21.40;99.90
46085;DHT22;31823;47.032;8.310;2022-07-12T08:00:25;21.60;99.90
46085;DHT22;31823;47.032;8.310;2022-07-12T08:02:51;21.50;99.90
46085;DHT22;31823;47.032;8.310;2022-07-12T08:05:17;21.80;99.90
46085;DHT22;31823;47.032;8.310;2022-07-12T08:07:42;22.10;99.90
46085;DHT22;31823;47.032;8.310;2022-07-12T08:10:08;22.20;99.90
46085;DHT22;31823;47.032;8.310;2022-07-12T08:12:34;22.30;99.90
46085;DHT22;31823;47.032;8.310;2022-07-12T08:14:59;22.30;99.90
46085;DHT22;31823;47.032;8.310;2022-07-12T08:17:25;22.10;99.90
46085;DHT22;31823;47.032;8.310;2022-07-12T08:19:50;22.50;99.90
46085;DHT22;31823;47.032;8.310;2022-07-12T08:22:16;22.60;99.90
46085;DHT22;31823;47.032;8.310;2022-07-12T08:24:42;22.50;99.90
46085;DHT22;31823;47.032;8.310;2022-07-12T08:27:07;22.40;99.90
46085;DHT22;31823;47.032;8.310;2022-07-12T08:29:33;22.60;99.90
46085;DHT22;31823;47.032;8.310;2022-07-12T08:31:58;22.30;99.90
46085;DHT22;31823;47.032;8.310;2022-07-12T08:34:24;22.50;99.90
46085;DHT22;31823;47.032;8.310;2022-07-12T08:36:50;22.90;99.90
46085;DHT22;31823;47.032;8.310;2022-07-12T08:39:15;23.20;99.90
46085;DHT22;31823;47.032;8.310;2022-07-12T08:41:41;23.10;99.90
46085;DHT22;31823;47.032;8.310;2022-07-12T08:44:07;23.00;99.90
46085;DHT22;31823;47.032;8.310;2022-07-12T08:46:32;22.80;99.90
46085;DHT22;31823;47.032;8.310;2022-07-12T08:49:05;22.80;99.90
46085;DHT22;31823;47.032;8.310;2022-07-12T08:51:32;22.70;99.90
46085;DHT22;31823;47.032;8.310;2022-07-12T08:54:12;22.90;99.90
46085;DHT22;31823;47.032;8.310;2022-07-12T08:56:39;22.70;99.90
46085;DHT22;31823;47.032;8.310;2022-07-12T09:01:48;23.00;99.90
46085;DHT22;31823;47.032;8.310;2022-07-12T09:04:26;23.40;99.90
46085;DHT22;31823;47.032;8.310;2022-07-12T09:06:53;23.20;99.50
46085;DHT22;31823;47.032;8.310;2022-07-12T09:09:29;23.10;99.60
46085;DHT22;31823;47.032;8.310;2022-07-12T09:11:55;23.10;99.00
46085;DHT22;31823;47.032;8.310;2022-07-12T09:14:21;22.70;99.90
46085;DHT22;31823;47.032;8.310;2022-07-12T09:19:29;23.50;99.90
46085;DHT22;31823;47.032;8.310;2022-07-12T09:21:55;23.40;98.90
46085;DHT22;31823;47.032;8.310;2022-07-12T09:24:24;23.80;99.50
46085;DHT22;31823;47.032;8.310;2022-07-12T09:26:54;23.70;98.70
46085;DHT22;31823;47.032;8.310;2022-07-12T09:29:22;23.90;99.50
46085;DHT22;31823;47.032;8.310;2022-07-12T09:31:49;23.40;99.90
46085;DHT22;31823;47.032;8.310;2022-07-12T09:34:34;23.60;99.90
46085;DHT22;31823;47.032;8.310;2022-07-12T09:37:19;24.20;99.70
46085;DHT22;31823;47.032;8.310;2022-07-12T09:39:45;24.10;99.50
46085;DHT22;31823;47.032;8.310;2022-07-12T09:42:11;23.70;98.10
46085;DHT22;31823;47.032;8.310;2022-07-12T09:44:41;24.10;98.70
46085;DHT22;31823;47.032;8.310;2022-07-12T09:47:27;24.50;98.50
46085;DHT22;31823;47.032;8.310;2022-07-12T09:49:55;24.20;97.80
46085;DHT22;31823;47.032;8.310;2022-07-12T09:52:32;24.40;97.50
46085;DHT22;31823;47.032;8.310;2022-07-12T09:54:58;24.90;97.40
46085;DHT22;31823;47.032;8.310;2022-07-12T09:57:27;24.70;96.00
46085;DHT22;31823;47.032;8.310;2022-07-12T09:59:54;24.70;98.40
46085;DHT22;31823;47.032;8.310;2022-07-12T10:02:22;24.20;96.20
46085;DHT22;31823;47.032;8.310;2022-07-12T10:04:48;24.60;96.70
46085;DHT22;31823;47.032;8.310;2022-07-12T10:07:14;25.30;97.60
46085;DHT22;31823;47.032;8.310;2022-07-12T10:09:42;25.60;97.20
46085;DHT22;31823;47.032;8.310;2022-07-12T10:12:10;25.40;96.10
46085;DHT22;31823;47.032;8.310;2022-07-12T10:14:37;25.70;95.90
46085;DHT22;31823;47.032;8.310;2022-07-12T10:17:04;25.70;96.30
46085;DHT22;31823;47.032;8.310;2022-07-12T10:19:35;25.60;94.60
46085;DHT22;31823;47.032;8.310;2022-07-12T10:22:03;25.40;98.00
46085;DHT22;31823;47.032;8.310;2022-07-12T10:29:48;25.70;96.30
46085;DHT22;31823;47.032;8.310;2022-07-12T10:35:15;25.80;94.20
46085;DHT22;31823;47.032;8.310;2022-07-12T10:37:42;26.20;93.60
46085;DHT22;31823;47.032;8.310;2022-07-12T10:40:27;26.00;95.30
46085;DHT22;31823;47.032;8.310;2022-07-12T10:45:40;26.70;95.60
46085;DHT22;31823;47.032;8.310;2022-07-12T10:48:20;26.40;94.90
46085;DHT22;31823;47.032;8.310;2022-07-12T10:56:23;26.40;93.10
46085;DHT22;31823;47.032;8.310;2022-07-12T10:58:54;26.60;92.50
46085;DHT22;31823;47.032;8.310;2022-07-12T11:01:31;26.10;94.70
46085;DHT22;31823;47.032;8.310;2022-07-12T11:04:08;26.50;93.50
46085;DHT22;31823;47.032;8.310;2022-07-12T11:06:41;26.70;91.80
46085;DHT22;31823;47.032;8.310;2022-07-12T11:09:09;27.10;91.40
46085;DHT22;31823;47.032;8.310;2022-07-12T11:11:41;26.80;90.60
46085;DHT22;31823;47.032;8.310;2022-07-12T11:14:08;27.00;94.30
46085;DHT22;31823;47.032;8.310;2022-07-12T11:16:34;27.20;91.40
46085;DHT22;31823;47.032;8.310;2022-07-12T11:19:07;27.00;92.40
46085;DHT22;31823;47.032;8.310;2022-07-12T11:21:35;27.50;91.30
46085;DHT22;31823;47.032;8.310;2022-07-12T11:24:01;27.70;90.50
46085;DHT22;31823;47.032;8.310;2022-07-12T11:26:27;27.50;91.40
46085;DHT22;31823;47.032;8.310;2022-07-12T11:28:57;27.90;91.00
46085;DHT22;31823;47.032;8.310;2022-07-12T11:31:23;27.50;91.00
46085;DHT22;31823;47.032;8.310;2022-07-12T11:33:50;27.70;93.60
46085;DHT22;31823;47.032;8.310;2022-07-12T11:36:16;28.00;90.50
46085;DHT22;31823;47.032;8.310;2022-07-12T11:38:44;27.70;87.40
46085;DHT22;31823;47.032;8.310;2022-07-12T11:41:12;27.80;92.40
46085;DHT22;31823;47.032;8.310;2022-07-12T11:43:39;27.50;89.80
46085;DHT22;31823;47.032;8.310;2022-07-12T11:46:06;27.70;90.20
46085;DHT22;31823;47.032;8.310;2022-07-12T11:48:31;27.70;88.50
46085;DHT22;31823;47.032;8.310;2022-07-12T11:51:04;28.10;90.70
46085;DHT22;31823;47.032;8.310;2022-07-12T11:53:31;28.30;90.40
46085;DHT22;31823;47.032;8.310;2022-07-12T11:56:00;28.00;85.20
46085;DHT22;31823;47.032;8.310;2022-07-12T11:58:27;28.00;89.10
46085;DHT22;31823;47.032;8.310;2022-07-12T12:00:54;28.10;90.40
46085;DHT22;31823;47.032;8.310;2022-07-12T12:03:21;28.30;89.80
46085;DHT22;31823;47.032;8.310;2022-07-12T12:05:53;28.20;89.00
46085;DHT22;31823;47.032;8.310;2022-07-12T12:08:19;28.70;87.40
46085;DHT22;31823;47.032;8.310;2022-07-12T12:13:18;28.20;86.20
46085;DHT22;31823;47.032;8.310;2022-07-12T12:16:00;28.60;84.40
46085;DHT22;31823;47.032;8.310;2022-07-12T12:18:40;28.50;87.30
46085;DHT22;31823;47.032;8.310;2022-07-12T12:21:10;28.20;78.80
46085;DHT22;31823;47.032;8.310;2022-07-12T12:23:38;28.30;80.00
46085;DHT22;31823;47.032;8.310;2022-07-12T12:26:14;28.50;83.00
46085;DHT22;31823;47.032;8.310;2022-07-12T12:28:58;27.90;89.20
46085;DHT22;31823;47.032;8.310;2022-07-12T12:31:27;28.30;85.00
46085;DHT22;31823;47.032;8.310;2022-07-12T12:33:54;28.30;85.50
46085;DHT22;31823;47.032;8.310;2022-07-12T12:36:25;28.80;84.30
46085;DHT22;31823;47.032;8.310;2022-07-12T12:39:00;28.60;86.10
46085;DHT22;31823;47.032;8.310;2022-07-12T12:41:30;28.60;83.70
46085;DHT22;31823;47.032;8.310;2022-07-12T12:44:04;28.30;77.40
46085;DHT22;31823;47.032;8.310;2022-07-12T12:49:46;28.50;83.20
46085;DHT22;31823;47.032;8.310;2022-07-12T12:52:12;28.90;76.30
46085;DHT22;31823;47.032;8.310;2022-07-12T12:54:38;28.90;84.10
46085;DHT22;31823;47.032;8.310;2022-07-12T12:57:05;28.90;82.10
46085;DHT22;31823;47.032;8.310;2022-07-12T12:59:32;28.50;78.80
46085;DHT22;31823;47.032;8.310;2022-07-12T13:01:58;28.70;79.10
46085;DHT22;31823;47.032;8.310;2022-07-12T13:04:31;28.40;76.90
46085;DHT22;31823;47.032;8.310;2022-07-12T13:06:57;28.70;88.60
46085;DHT22;31823;47.032;8.310;2022-07-12T13:09:23;28.90;84.00
46085;DHT22;31823;47.032;8.310;2022-07-12T13:11:49;29.30;75.90
46085;DHT22;31823;47.032;8.310;2022-07-12T13:14:15;29.10;79.20
46085;DHT22;31823;47.032;8.310;2022-07-12T13:16:41;29.20;82.00
46085;DHT22;31823;47.032;8.310;2022-07-12T13:19:07;29.40;78.20
46085;DHT22;31823;47.032;8.310;2022-07-12T13:21:33;29.00;77.50
46085;DHT22;31823;47.032;8.310;2022-07-12T13:23:59;29.20;72.50
46085;DHT22;31823;47.032;8.310;2022-07-12T13:26:24;28.80;71.90
46085;DHT22;31823;47.032;8.310;2022-07-12T13:28:50;29.10;69.30
46085;DHT22;31823;47.032;8.310;2022-07-12T13:31:16;28.90;79.00
46085;DHT22;31823;47.032;8.310;2022-07-12T13:33:41;29.50;75.80
46085;DHT22;31823;47.032;8.310;2022-07-12T13:36:07;29.20;77.10
46085;DHT22;31823;47.032;8.310;2022-07-12T13:38:33;29.40;74.80
46085;DHT22;31823;47.032;8.310;2022-07-12T13:40:59;28.90;68.10
46085;DHT22;31823;47.032;8.310;2022-07-12T13:43:24;29.10;80.20
46085;DHT22;31823;47.032;8.310;2022-07-12T13:45:51;29.40;73.20
46085;DHT22;31823;47.032;8.310;2022-07-12T13:48:17;29.10;66.60
46085;DHT22;31823;47.032;8.310;2022-07-12T13:50:44;29.00;69.80
46085;DHT22;31823;47.032;8.310;2022-07-12T13:53:10;29.20;80.10
46085;DHT22;31823;47.032;8.310;2022-07-12T13:55:36;29.70;73.60
46085;DHT22;31823;47.032;8.310;2022-07-12T13:58:06;29.40;69.40
46085;DHT22;31823;47.032;8.310;2022-07-12T14:00:33;30.20;68.10
46085;DHT22;31823;47.032;8.310;2022-07-12T14:02:59;29.40;70.00
46085;DHT22;31823;47.032;8.310;2022-07-12T14:05:24;29.20;72.00
46085;DHT22;31823;47.032;8.310;2022-07-12T14:07:50;29.60;65.00
46085;DHT22;31823;47.032;8.310;2022-07-12T14:10:16;29.70;70.20
46085;DHT22;31823;47.032;8.310;2022-07-12T14:12:42;29.70;70.50
46085;DHT22;31823;47.032;8.310;2022-07-12T14:15:08;29.70;68.70
46085;DHT22;31823;47.032;8.310;2022-07-12T14:17:41;29.10;64.40
46085;DHT22;31823;47.032;8.310;2022-07-12T14:20:08;29.10;73.40
46085;DHT22;31823;47.032;8.310;2022-07-12T14:22:35;29.00;67.60
46085;DHT22;31823;47.032;8.310;2022-07-12T14:25:00;29.20;69.70
46085;DHT22;31823;47.032;8.310;2022-07-12T14:27:26;29.50;72.40
46085;DHT22;31823;47.032;8.310;2022-07-12T14:29:52;29.20;66.60
46085;DHT22;31823;47.032;8.310;2022-07-12T14:32:18;29.40;64.80
46085;DHT22;31823;47.032;8.310;2022-07-12T14:34:43;29.10;66.70
46085;DHT22;31823;47.032;8.310;2022-07-12T14:37:09;29.10;68.10
46085;DHT22;31823;47.032;8.310;2022-07-12T14:39:35;28.80;70.70
46085;DHT22;31823;47.032;8.310;2022-07-12T14:42:01;29.10;70.60
46085;DHT22;31823;47.032;8.310;2022-07-12T14:44:26;29.50;67.40
46085;DHT22;31823;47.032;8.310;2022-07-12T14:46:53;29.80;73.70
46085;DHT22;31823;47.032;8.310;2022-07-12T14:49:19;29.40;66.40
46085;DHT22;31823;47.032;8.310;2022-07-12T14:51:45;29.20;68.60
46085;DHT22;31823;47.032;8.310;2022-07-12T14:54:11;28.90;63.40
46085;DHT22;31823;47.032;8.310;2022-07-12T14:56:37;28.80;66.50
46085;DHT22;31823;47.032;8.310;2022-07-12T14:59:02;28.90;66.30
46085;DHT22;31823;47.032;8.310;2022-07-12T15:01:28;29.30;67.70
46085;DHT22;31823;47.032;8.310;2022-07-12T15:03:54;29.30;60.60
46085;DHT22;31823;47.032;8.310;2022-07-12T15:06:20;29.30;64.10
46085;DHT22;31823;47.032;8.310;2022-07-12T15:08:46;28.70;63.60
46085;DHT22;31823;47.032;8.310;2022-07-12T15:11:11;29.00;61.20
46085;DHT22;31823;47.032;8.310;2022-07-12T15:13:37;28.70;62.10
46085;DHT22;31823;47.032;8.310;2022-07-12T15:16:03;29.10;62.60
46085;DHT22;31823;47.032;8.310;2022-07-12T15:18:29;29.20;65.40
46085;DHT22;31823;47.032;8.310;2022-07-12T15:20:55;29.20;66.70
46085;DHT22;31823;47.032;8.310;2022-07-12T15:23:21;28.80;60.80
46085;DHT22;31823;47.032;8.310;2022-07-12T15:25:46;29.10;63.20
46085;DHT22;31823;47.032;8.310;2022-07-12T15:28:12;28.90;58.60
46085;DHT22;31823;47.032;8.310;2022-07-12T15:30:38;28.80;66.80
46085;DHT22;31823;47.032;8.310;2022-07-12T15:33:03;28.60;63.40
46085;DHT22;31823;47.032;8.310;2022-07-12T15:35:29;28.80;62.20
46085;DHT22;31823;47.032;8.310;2022-07-12T15:37:55;28.80;63.10
46085;DHT22;31823;47.032;8.310;2022-07-12T15:40:20;28.60;65.90
46085;DHT22;31823;47.032;8.310;2022-07-12T15:42:46;28.40;64.00
46085;DHT22;31823;47.032;8.310;2022-07-12T15:45:12;28.60;62.50
46085;DHT22;31823;47.032;8.310;2022-07-12T15:47:38;28.50;62.50
46085;DHT22;31823;47.032;8.310;2022-07-12T15:50:05;28.10;60.90
46085;DHT22;31823;47.032;8.310;2022-07-12T15:52:31;28.30;60.90
46085;DHT22;31823;47.032;8.310;2022-07-12T15:55:15;28.30;55.90
46085;DHT22;31823;47.032;8.310;2022-07-12T15:57:41;28.00;64.00